createdAt,value
2023-01-13T00:00:15.877Z,90.03
2023-01-13T00:02:49.478Z,67.32
2023-01-13T00:05:23.169Z,85.47
2023-01-13T00:07:56.674Z,88.38
2023-01-13T00:10:30.358Z,57.03
2023-01-13T00:13:06.456Z,55.15
2023-01-13T00:15:40.149Z,53.58
2023-01-13T00:18:13.804Z,59.40
2023-01-13T00:20:47.455Z,88.72
2023-01-13T00:23:20.930Z,84.45
2023-01-13T00:25:57.023Z,73.00
2023-01-13T00:28:31.907Z,46.15
2023-01-13T00:31:09.474Z,50.28
2023-01-13T00:33:43.316Z,54.53
2023-01-13T00:36:17.943Z,52.70
2023-01-13T00:38:51.460Z,65.13
2023-01-13T00:41:26.527Z,48.72
2023-01-13T00:44:00.550Z,39.17
2023-01-13T00:46:34.092Z,55.03
2023-01-13T00:49:07.748Z,51.83
2023-01-13T00:51:41.417Z,139.77
2023-01-13T00:54:14.904Z,82.78
2023-01-13T00:56:48.619Z,195.15
2023-01-13T00:59:23.653Z,196.43
2023-01-13T01:01:57.411Z,149.02
2023-01-13T01:04:31.191Z,201.32
2023-01-13T01:07:04.742Z,259.48
2023-01-13T01:09:39.678Z,114.28
2023-01-13T01:12:14.479Z,104.88
2023-01-13T01:14:49.595Z,175.55
2023-01-13T01:17:23.096Z,274.38
2023-01-13T01:19:56.825Z,285.88
2023-01-13T01:22:30.438Z,282.98
2023-01-13T01:25:04.232Z,112.10
2023-01-13T01:27:37.757Z,93.03
2023-01-13T01:30:14.255Z,132.32
2023-01-13T01:32:47.743Z,118.55
2023-01-13T01:35:21.250Z,190.80
2023-01-13T01:37:55.160Z,98.35
2023-01-13T01:40:28.778Z,69.20
2023-01-13T01:43:19.778Z,69.22
2023-01-13T01:45:54.958Z,60.92
2023-01-13T01:48:30.987Z,54.88
2023-01-13T01:51:05.217Z,49.63
2023-01-13T01:53:39.229Z,49.33
2023-01-13T01:56:12.825Z,51.55
2023-01-13T01:58:51.158Z,54.63
2023-01-13T02:01:26.312Z,46.70
2023-01-13T02:04:06.391Z,48.15
2023-01-13T02:06:40.523Z,46.33
2023-01-13T02:09:14.832Z,55.03
2023-01-13T02:12:05.831Z,47.05
2023-01-13T02:14:40.512Z,47.70
2023-01-13T02:17:27.249Z,41.95
2023-01-13T02:20:34.624Z,48.13
2023-01-13T02:23:56.108Z,42.05
2023-01-13T02:27:02.153Z,49.28
2023-01-13T02:30:26.576Z,53.08
2023-01-13T02:33:09.547Z,34.72
2023-01-13T02:35:51.877Z,42.20
2023-01-13T02:38:33.879Z,45.95
2023-01-13T02:41:29.652Z,44.38
2023-01-13T02:44:08.519Z,37.70
2023-01-13T02:46:50.668Z,40.10
2023-01-13T02:49:31.380Z,35.67
2023-01-13T02:52:11.039Z,46.88
2023-01-13T02:54:49.289Z,38.10
2023-01-13T02:57:25.144Z,31.92
2023-01-13T02:59:59.147Z,33.85
2023-01-13T03:02:34.484Z,36.08
2023-01-13T03:05:09.082Z,41.00
2023-01-13T03:08:07.570Z,43.92
2023-01-13T03:11:03.729Z,37.95
2023-01-13T03:13:57.200Z,42.55
2023-01-13T03:16:39.509Z,47.33
2023-01-13T03:19:30.848Z,41.13
2023-01-13T03:22:14.308Z,39.80
2023-01-13T03:24:54.402Z,47.35
2023-01-13T03:27:33.574Z,45.03
2023-01-13T03:30:11.126Z,39.85
2023-01-13T03:32:47.585Z,39.25
2023-01-13T03:35:25.867Z,43.65
2023-01-13T03:38:05.243Z,36.22
2023-01-13T03:40:44.217Z,35.72
2023-01-13T03:43:54.629Z,27.30
2023-01-13T03:46:33.586Z,33.55
2023-01-13T03:49:09.420Z,37.70
2023-01-13T03:51:49.463Z,37.13
2023-01-13T03:54:25.167Z,46.22
2023-01-13T03:57:02.903Z,37.05
2023-01-13T03:59:42.230Z,34.90
2023-01-13T04:02:22.867Z,27.55
2023-01-13T04:05:01.390Z,26.98
2023-01-13T04:07:44.217Z,36.58
2023-01-13T04:10:21.393Z,25.48
2023-01-13T04:13:04.342Z,33.47
2023-01-13T04:15:40.630Z,29.30
2023-01-13T04:18:17.011Z,30.52
2023-01-13T04:20:52.415Z,35.63
2023-01-13T04:23:28.206Z,40.90
2023-01-13T04:26:01.713Z,28.90
2023-01-13T04:28:36.072Z,37.53
2023-01-13T04:31:09.905Z,42.92
2023-01-13T04:33:43.413Z,41.95
2023-01-13T04:36:17.052Z,49.42
2023-01-13T04:38:51.901Z,41.40
2023-01-13T04:41:25.398Z,36.55
2023-01-13T04:43:59.210Z,50.10
2023-01-13T04:46:32.708Z,52.67
2023-01-13T04:49:06.694Z,53.40
2023-01-13T04:51:40.167Z,44.42
2023-01-13T04:54:16.262Z,42.08
2023-01-13T04:56:49.993Z,50.53
2023-01-13T04:59:23.450Z,51.65
2023-01-13T05:01:57.405Z,53.90
2023-01-13T05:04:30.943Z,46.28
2023-01-13T05:07:04.922Z,47.25
2023-01-13T05:09:39.790Z,52.08
2023-01-13T05:12:30.959Z,47.05
2023-01-13T05:15:22.253Z,55.35
2023-01-13T05:17:55.706Z,46.92
2023-01-13T05:20:29.814Z,41.40
2023-01-13T05:23:20.967Z,40.67
2023-01-13T05:25:55.863Z,46.28
2023-01-13T05:28:33.337Z,31.73
2023-01-13T05:31:07.166Z,36.25
2023-01-13T05:33:41.120Z,35.25
2023-01-13T05:36:14.575Z,29.88
2023-01-13T05:38:48.180Z,27.98
2023-01-13T05:41:40.235Z,30.80
2023-01-13T05:44:14.043Z,23.67
2023-01-13T05:46:47.607Z,24.58
2023-01-13T05:49:21.125Z,27.08
2023-01-13T05:51:54.953Z,23.75
2023-01-13T05:54:28.435Z,30.08
2023-01-13T05:57:03.294Z,24.92
2023-01-13T05:59:37.065Z,30.23
2023-01-13T06:02:10.604Z,16.83
2023-01-13T06:04:44.452Z,15.00
2023-01-13T06:07:17.942Z,15.90
2023-01-13T06:09:51.704Z,12.63
2023-01-13T06:12:26.552Z,14.18
2023-01-13T06:15:00.202Z,9.18
2023-01-13T06:17:33.641Z,9.98
2023-01-13T06:20:09.370Z,20.30
2023-01-13T06:22:45.864Z,10.68
2023-01-13T06:25:30.696Z,13.18
2023-01-13T06:28:05.606Z,14.02
2023-01-13T06:30:44.151Z,9.52
2023-01-13T06:33:20.945Z,10.65
2023-01-13T06:35:58.339Z,15.55
2023-01-13T06:38:35.503Z,12.18
2023-01-13T06:41:09.865Z,15.55
2023-01-13T06:43:43.813Z,12.13
2023-01-13T06:46:17.485Z,17.92
2023-01-13T06:48:50.926Z,13.45
2023-01-13T06:51:24.705Z,9.77
2023-01-13T06:53:58.207Z,17.95
2023-01-13T06:56:32.106Z,18.50
2023-01-13T06:59:07.011Z,9.25
2023-01-13T07:01:40.636Z,15.88
2023-01-13T07:04:14.331Z,19.45
2023-01-13T07:06:47.774Z,11.32
2023-01-13T07:09:21.401Z,16.70
2023-01-13T07:11:54.977Z,7.22
2023-01-13T07:14:47.265Z,8.88
2023-01-13T07:17:25.460Z,8.60
2023-01-13T07:19:59.100Z,9.82
2023-01-13T07:22:32.724Z,18.33
2023-01-13T07:25:07.272Z,11.07
2023-01-13T07:27:40.786Z,6.30
2023-01-13T07:30:16.169Z,6.72
2023-01-13T07:32:49.984Z,7.35
2023-01-13T07:35:23.561Z,12.18
2023-01-13T07:37:57.069Z,11.27
2023-01-13T07:40:30.527Z,7.70
2023-01-13T07:43:21.793Z,9.57
2023-01-13T07:45:59.620Z,5.88
2023-01-13T07:48:35.280Z,7.63
2023-01-13T07:51:10.119Z,5.85
2023-01-13T07:53:43.897Z,6.57
2023-01-13T07:56:17.769Z,7.25
2023-01-13T07:58:53.213Z,5.50
2023-01-13T08:01:30.085Z,7.15
2023-01-13T08:04:06.641Z,10.68
2023-01-13T08:06:41.129Z,8.82
2023-01-13T08:09:14.627Z,7.07
2023-01-13T08:12:08.251Z,8.00
2023-01-13T08:14:41.872Z,6.15
2023-01-13T08:17:18.659Z,8.45
2023-01-13T08:19:53.202Z,8.50
2023-01-13T08:22:27.016Z,8.90
2023-01-13T08:25:00.757Z,10.32
2023-01-13T08:27:34.949Z,10.18
2023-01-13T08:30:09.799Z,6.85
2023-01-13T08:32:46.761Z,7.05
2023-01-13T08:35:21.021Z,11.30
2023-01-13T08:37:54.588Z,8.55
2023-01-13T08:40:28.197Z,7.97
2023-01-13T08:43:02.209Z,7.25
2023-01-13T08:45:36.155Z,6.30
2023-01-13T08:48:11.236Z,5.72
2023-01-13T08:50:44.732Z,6.82
2023-01-13T08:53:18.556Z,4.72
2023-01-13T08:55:52.109Z,10.73
2023-01-13T08:58:25.731Z,6.95
2023-01-13T09:01:05.269Z,6.20
2023-01-13T09:03:41.911Z,5.97
2023-01-13T09:06:15.694Z,6.55
2023-01-13T09:08:49.285Z,8.00
2023-01-13T09:11:47.071Z,7.40
2023-01-13T09:14:21.339Z,7.93
2023-01-13T09:16:54.838Z,9.10
2023-01-13T09:19:31.049Z,5.43
2023-01-13T09:22:05.156Z,5.82
2023-01-13T09:24:38.671Z,6.65
2023-01-13T09:27:13.340Z,5.00
2023-01-13T09:29:46.831Z,5.43
2023-01-13T09:32:20.351Z,6.57
2023-01-13T09:35:03.762Z,11.20
2023-01-13T09:37:40.700Z,5.47
2023-01-13T09:40:20.203Z,5.97
2023-01-13T09:43:17.120Z,7.30
2023-01-13T09:45:57.234Z,4.85
2023-01-13T09:48:34.030Z,11.00
2023-01-13T09:51:20.943Z,17.55
2023-01-13T09:53:59.075Z,15.75
2023-01-13T09:56:32.811Z,6.63
2023-01-13T09:59:06.592Z,6.18
2023-01-13T10:01:47.724Z,6.78
2023-01-13T10:04:27.871Z,18.40
2023-01-13T10:07:06.127Z,7.57
2023-01-13T10:09:50.870Z,5.88
2023-01-13T10:12:45.431Z,4.68
2023-01-13T10:15:23.299Z,21.67
2023-01-13T10:18:03.696Z,30.23
2023-01-13T10:20:50.873Z,7.20
2023-01-13T10:23:52.520Z,11.55
2023-01-13T10:26:43.079Z,12.65
2023-01-13T10:29:22.384Z,8.52
2023-01-13T10:31:57.262Z,10.50
2023-01-13T10:34:31.462Z,11.93
2023-01-13T10:37:07.273Z,12.00
2023-01-13T10:39:44.483Z,6.72
2023-01-13T10:42:22.014Z,5.28
2023-01-13T10:44:57.466Z,8.88
2023-01-13T10:47:33.688Z,6.63
2023-01-13T10:50:28.248Z,7.63
2023-01-13T10:53:03.847Z,8.23
2023-01-13T10:55:38.801Z,6.57
2023-01-13T10:58:18.483Z,10.10
2023-01-13T11:01:01.512Z,8.98
2023-01-13T11:03:41.701Z,6.80
2023-01-13T11:06:23.338Z,5.57
2023-01-13T11:08:59.384Z,6.80
2023-01-13T11:11:43.343Z,8.48
2023-01-13T11:14:36.974Z,5.22
2023-01-13T11:17:33.863Z,4.15
2023-01-13T11:20:18.692Z,5.50
2023-01-13T11:22:55.811Z,4.75
2023-01-13T11:25:35.350Z,7.78
2023-01-13T11:28:22.916Z,5.00
2023-01-13T11:31:03.152Z,6.28
2023-01-13T11:33:45.168Z,7.03
2023-01-13T11:36:22.890Z,6.18
2023-01-13T11:38:58.306Z,4.25
2023-01-13T11:41:45.483Z,5.07
2023-01-13T11:44:23.559Z,5.65
2023-01-13T11:46:57.165Z,7.38
2023-01-13T11:49:33.913Z,5.35
2023-01-13T11:52:14.318Z,9.20
2023-01-13T11:55:06.050Z,5.30
2023-01-13T11:57:53.623Z,5.47
2023-01-13T12:00:44.630Z,4.97
2023-01-13T12:03:27.981Z,5.70
2023-01-13T12:06:12.288Z,5.90
2023-01-13T12:09:12.167Z,4.68
2023-01-13T12:12:17.089Z,12.40
2023-01-13T12:15:17.176Z,4.25
2023-01-13T12:18:04.840Z,5.57
2023-01-13T12:20:45.876Z,7.47
2023-01-13T12:23:26.722Z,7.25
2023-01-13T12:26:04.894Z,5.90
2023-01-13T12:28:46.006Z,4.47
2023-01-13T12:31:21.854Z,4.45
2023-01-13T12:34:09.287Z,5.13
2023-01-13T12:36:52.967Z,4.13
2023-01-13T12:39:34.333Z,5.85
2023-01-13T12:42:33.874Z,4.40
2023-01-13T12:45:37.686Z,5.72
2023-01-13T12:49:05.282Z,6.20
2023-01-13T12:52:07.373Z,5.72
2023-01-13T12:55:15.996Z,3.97
2023-01-13T12:58:18.139Z,6.60
2023-01-13T13:00:58.696Z,6.90
2023-01-13T13:03:34.727Z,5.13
2023-01-13T13:06:15.011Z,5.55
2023-01-13T13:09:03.733Z,8.77
2023-01-13T13:12:03.278Z,4.95
2023-01-13T13:15:04.463Z,6.85
2023-01-13T13:17:46.425Z,5.07
2023-01-13T13:20:55.716Z,5.10
2023-01-13T13:23:48.092Z,4.85
2023-01-13T13:26:46.867Z,5.68
2023-01-13T13:29:42.076Z,5.70
2023-01-13T13:32:42.355Z,5.50
2023-01-13T13:35:32.420Z,7.60
2023-01-13T13:38:40.612Z,4.82
2023-01-13T13:41:36.194Z,4.32
2023-01-13T13:44:33.810Z,5.30
2023-01-13T13:47:08.522Z,5.70
2023-01-13T13:49:45.412Z,4.30
2023-01-13T13:52:23.551Z,3.80
2023-01-13T13:55:07.544Z,6.75
2023-01-13T13:57:42.518Z,9.27
2023-01-13T14:00:26.850Z,7.25
2023-01-13T14:03:05.106Z,5.80
2023-01-13T14:05:39.302Z,4.78
2023-01-13T14:08:16.803Z,6.05
2023-01-13T14:10:50.359Z,4.53
2023-01-13T14:13:26.542Z,3.40
2023-01-13T14:16:03.317Z,4.43
2023-01-13T14:18:48.101Z,5.25
2023-01-13T14:21:25.211Z,4.55
2023-01-13T14:24:01.470Z,5.57
2023-01-13T14:26:34.987Z,4.97
2023-01-13T14:29:14.993Z,5.85
2023-01-13T14:31:51.458Z,5.32
2023-01-13T14:34:33.465Z,6.57
2023-01-13T14:37:26.068Z,3.95
2023-01-13T14:39:59.674Z,6.68
2023-01-13T14:42:35.584Z,5.57
2023-01-13T14:45:24.668Z,4.40
2023-01-13T14:48:03.820Z,3.65
2023-01-13T14:50:38.784Z,5.43
2023-01-13T14:53:28.880Z,3.95
2023-01-13T14:56:22.657Z,5.03
2023-01-13T14:58:56.419Z,6.75
2023-01-13T15:01:36.428Z,6.88
2023-01-13T15:04:27.193Z,5.80
2023-01-13T15:07:01.667Z,8.35
2023-01-13T15:09:41.180Z,7.15
2023-01-13T15:12:18.515Z,6.32
2023-01-13T15:14:52.636Z,6.88
2023-01-13T15:17:26.237Z,8.35
2023-01-13T15:20:01.539Z,6.75
2023-01-13T15:22:35.113Z,8.55
2023-01-13T15:25:09.633Z,5.25
2023-01-13T15:27:44.595Z,4.97
2023-01-13T15:30:19.967Z,5.90
2023-01-13T15:32:55.007Z,5.05
2023-01-13T15:35:30.459Z,6.25
2023-01-13T15:38:07.427Z,6.57
2023-01-13T15:40:41.324Z,5.97
2023-01-13T15:43:34.594Z,6.32
2023-01-13T15:46:33.004Z,5.80
2023-01-13T15:49:12.870Z,6.40
2023-01-13T15:51:48.513Z,7.55
2023-01-13T15:54:24.645Z,6.43
2023-01-13T15:56:58.802Z,4.88
2023-01-13T15:59:33.910Z,5.97
2023-01-13T16:02:14.960Z,7.22
2023-01-13T16:04:48.600Z,3.88
2023-01-13T16:07:26.359Z,5.55
2023-01-13T16:10:01.847Z,4.72
2023-01-13T16:12:37.599Z,7.07
2023-01-13T16:15:14.179Z,5.82
2023-01-13T16:17:55.538Z,6.22
2023-01-13T16:20:29.569Z,6.03
2023-01-13T16:23:04.673Z,5.07
2023-01-13T16:25:38.292Z,4.68
2023-01-13T16:28:20.407Z,3.90
2023-01-13T16:30:53.998Z,4.93
2023-01-13T16:33:27.704Z,4.30
2023-01-13T16:36:10.554Z,4.65
2023-01-13T16:38:48.145Z,6.32
2023-01-13T16:41:23.964Z,4.15
2023-01-13T16:43:58.000Z,5.57
2023-01-13T16:46:31.546Z,5.10
2023-01-13T16:49:06.408Z,5.97
2023-01-13T16:51:40.298Z,6.45
2023-01-13T16:54:15.505Z,6.13
2023-01-13T16:56:49.605Z,5.53
2023-01-13T16:59:23.212Z,5.18
2023-01-13T17:01:56.978Z,5.75
2023-01-13T17:04:30.683Z,7.65
2023-01-13T17:07:08.178Z,7.25
2023-01-13T17:09:43.166Z,6.80
2023-01-13T17:12:16.763Z,5.03
2023-01-13T17:14:50.276Z,4.47
2023-01-13T17:17:27.077Z,4.90
2023-01-13T17:20:01.006Z,6.18
2023-01-13T17:22:34.557Z,4.25
2023-01-13T17:25:11.463Z,6.15
2023-01-13T17:27:44.996Z,9.32
2023-01-13T17:30:19.402Z,7.13
2023-01-13T17:32:53.000Z,6.22
2023-01-13T17:35:26.785Z,5.30
2023-01-13T17:38:01.982Z,7.50
2023-01-13T17:40:38.111Z,5.82
2023-01-13T17:43:11.664Z,6.95
2023-01-13T17:45:45.405Z,5.65
2023-01-13T17:48:19.517Z,5.50
2023-01-13T17:50:53.710Z,5.85
2023-01-13T17:53:27.269Z,4.68
2023-01-13T17:56:05.097Z,5.72
2023-01-13T17:58:39.321Z,5.40
2023-01-13T18:01:15.771Z,5.13
2023-01-13T18:03:49.926Z,5.10
2023-01-13T18:06:24.688Z,4.82
2023-01-13T18:09:01.739Z,5.72
2023-01-13T18:11:36.795Z,6.95
2023-01-13T18:14:10.983Z,5.97
2023-01-13T18:16:44.904Z,7.45
2023-01-13T18:19:35.886Z,4.78
2023-01-13T18:22:39.634Z,5.50
2023-01-13T18:25:31.340Z,7.28
2023-01-13T18:28:06.547Z,6.45
2023-01-13T18:30:40.144Z,6.05
2023-01-13T18:33:13.716Z,6.68
2023-01-13T18:35:47.274Z,6.35
2023-01-13T18:38:21.405Z,7.85
2023-01-13T18:40:54.914Z,8.45
2023-01-13T18:43:28.833Z,7.13
2023-01-13T18:46:02.534Z,9.10
2023-01-13T18:48:36.047Z,6.00
2023-01-13T18:51:09.548Z,4.40
2023-01-13T18:53:43.101Z,6.18
2023-01-13T18:56:17.104Z,6.13
2023-01-13T18:58:53.257Z,4.90
2023-01-13T19:01:29.620Z,5.00
2023-01-13T19:04:05.091Z,5.80
2023-01-13T19:06:47.753Z,5.88
2023-01-13T19:09:24.820Z,6.25
2023-01-13T19:12:01.163Z,5.57
2023-01-13T19:14:37.755Z,4.95
2023-01-13T19:17:13.516Z,5.60
2023-01-13T19:19:48.519Z,6.50
2023-01-13T19:22:23.507Z,7.68
2023-01-13T19:24:57.360Z,20.48
2023-01-13T19:27:31.991Z,26.08
2023-01-13T19:30:08.435Z,7.28
2023-01-13T19:32:42.015Z,23.98
2023-01-13T19:35:17.742Z,6.40
2023-01-13T19:37:51.355Z,11.38
2023-01-13T19:40:24.852Z,16.60
2023-01-13T19:43:19.276Z,12.82
2023-01-13T19:45:54.933Z,13.15
2023-01-13T19:48:28.538Z,12.75
2023-01-13T19:51:02.823Z,6.35
2023-01-13T19:53:36.625Z,12.95
2023-01-13T19:56:15.379Z,5.80
2023-01-13T19:58:50.834Z,10.65
2023-01-13T20:01:31.803Z,6.15
2023-01-13T20:04:07.646Z,5.03
2023-01-13T20:06:41.433Z,6.75
2023-01-13T20:09:15.123Z,4.43
2023-01-13T20:11:52.799Z,12.25
2023-01-13T20:14:26.905Z,4.75
2023-01-13T20:17:01.986Z,5.97
2023-01-13T20:19:35.763Z,7.30
2023-01-13T20:22:09.702Z,12.23
2023-01-13T20:24:43.437Z,14.63
2023-01-13T20:27:17.017Z,9.68
2023-01-13T20:29:50.678Z,10.30
2023-01-13T20:32:25.797Z,6.05
2023-01-13T20:34:59.365Z,6.88
2023-01-13T20:37:33.096Z,7.30
2023-01-13T20:40:08.406Z,6.18
2023-01-13T20:42:45.191Z,6.22
2023-01-13T20:45:21.596Z,7.22
2023-01-13T20:47:56.768Z,8.38
2023-01-13T20:50:30.327Z,10.10
2023-01-13T20:53:03.955Z,7.57
2023-01-13T20:55:40.716Z,10.25
2023-01-13T20:58:14.267Z,7.93
2023-01-13T21:00:50.634Z,9.38
2023-01-13T21:03:25.826Z,20.08
2023-01-13T21:05:59.435Z,8.60
2023-01-13T21:08:32.996Z,8.85
2023-01-13T21:11:10.547Z,4.85
2023-01-13T21:14:01.997Z,9.27
2023-01-13T21:16:35.695Z,9.95
2023-01-13T21:19:10.864Z,9.00
2023-01-13T21:21:44.432Z,6.88
2023-01-13T21:24:17.953Z,7.25
2023-01-13T21:26:54.269Z,9.85
2023-01-13T21:29:27.761Z,11.90
2023-01-13T21:32:01.436Z,7.80
2023-01-13T21:34:36.498Z,6.47
2023-01-13T21:37:10.045Z,8.68
2023-01-13T21:39:43.982Z,7.15
2023-01-13T21:42:35.764Z,8.65
2023-01-13T21:45:29.495Z,9.65
2023-01-13T21:48:03.203Z,7.25
2023-01-13T21:50:39.062Z,8.02
2023-01-13T21:53:12.764Z,8.75
2023-01-13T21:55:46.324Z,6.28
2023-01-13T21:58:19.880Z,7.65
2023-01-13T22:00:54.186Z,7.63
2023-01-13T22:03:27.860Z,7.13
2023-01-13T22:06:03.003Z,6.18
2023-01-13T22:08:37.101Z,7.15
2023-01-13T22:11:13.922Z,9.10
2023-01-13T22:14:04.966Z,9.25
2023-01-13T22:16:41.687Z,7.38
2023-01-13T22:19:15.506Z,7.97
2023-01-13T22:21:50.361Z,5.32
2023-01-13T22:24:25.376Z,9.10
2023-01-13T22:26:58.919Z,8.07
2023-01-13T22:29:32.624Z,7.70
2023-01-13T22:32:06.880Z,6.10
2023-01-13T22:34:40.628Z,6.68
2023-01-13T22:37:16.212Z,7.75
2023-01-13T22:39:50.093Z,6.65
2023-01-13T22:42:23.884Z,11.88
2023-01-13T22:44:57.486Z,7.95
2023-01-13T22:47:31.662Z,10.20
2023-01-13T22:50:06.388Z,10.48
2023-01-13T22:52:41.409Z,10.80
2023-01-13T22:55:15.105Z,8.68
2023-01-13T22:57:48.893Z,8.20
2023-01-13T23:00:24.971Z,9.02
2023-01-13T23:02:58.441Z,10.85
2023-01-13T23:05:32.098Z,12.55
2023-01-13T23:08:07.911Z,7.28
2023-01-13T23:10:42.630Z,11.52
2023-01-13T23:13:16.339Z,12.73
2023-01-13T23:15:49.983Z,7.72
2023-01-13T23:18:26.320Z,12.77
2023-01-13T23:21:04.949Z,9.25
2023-01-13T23:23:40.504Z,10.02
2023-01-13T23:26:14.893Z,14.82
2023-01-13T23:28:48.977Z,9.25
2023-01-13T23:31:23.523Z,14.07
2023-01-13T23:33:57.137Z,13.40
2023-01-13T23:36:30.683Z,12.00
2023-01-13T23:39:05.652Z,13.25
2023-01-13T23:41:39.171Z,15.73
2023-01-13T23:44:12.708Z,13.02
2023-01-13T23:46:46.403Z,10.60
2023-01-13T23:49:19.927Z,13.95
2023-01-13T23:51:54.345Z,16.05
2023-01-13T23:54:29.336Z,18.98
2023-01-13T23:57:03.107Z,18.60
2023-01-13T23:59:36.697Z,12.10
